Lima, OH

3:51 PM EST on December 27, 2014 (GMT -0500)
Findlay | Change Station
CLOSE
Current Station
Airport
Location: Findlay,
Elevation: 810 ft
Nearby Weather Stations

Elev 810 ft 41.01 °N, 83.67 °W | Updated 49 minutes ago

Overcast
Overcast
50 °F
Feels Like 50 °F
N
20
Wind Variable Wind from SSW

Today
High -- | Low -- °F
--% Chance of Precip.
Yesterday
High -- | Low -- °F
Precip. -- in
7:59 AM 5:15 PM
Waxing Crescent, 40% visible
Pressure 30.01 in
Visibility 10.0 miles
Clouds Overcast 1300 ft
Dew Point 44 °F
Humidity 80%
Rainfall 0.00 in
Snow Depth Not available.
UV 0 out of 12
Pollen .10 out of 12
Air Quality Not available.
Flu Activity Not available.
SPECI KFDY 272002Z AUTO 21017KT 10SM OVC013 10/07 A3001 RMK AO2 T01000067

More Conditions Fewer Conditions

Pressure 30.01 in
Visibility 10.0 miles
Clouds Overcast 1300 ft
Dew Point 44 °F
Humidity 80%
Rainfall 0.00 in
Snow Depth Not available.
UV 0 out of 12
Pollen .10 out of 12
Air Quality Not available.
Flu Activity Not available.
SPECI KFDY 272002Z AUTO 21017KT 10SM OVC013 10/07 A3001 RMK AO2 T01000067

More Conditions Fewer Conditions

10-Day Weather Forecast

Almanac

Astronomy

Dec. 27, 2014 Rise Set
Actual Time
Civil Twilight
Nautical Twilight
Astronomical Twilight
Moon
Length of Visible Light
Length of Day
Tomorrow will be .
, % of the Moon is Illuminated

Today's Extremes

State Highs State Lows

Community

WunderPhotos

Upload Photos

1,781,053 photos uploaded!

WunderBlogs® & News

Nearby

Air Quality

  Air Quality AQ Index Pollutant
Not available.

Snow Depth

Station Depth Elevation

Earthquake Activity

City Distance Mag. Time & Date
Minimum magnitude displayed is 2.5.

Coastal Water Temperatures

Place Temperature

Nearby Weather Stations